sensor_id;sensor_type;location;lat;lon;timestamp;P1;durP1;ratioP1;P2;durP2;ratioP2
74753;SDS011;63271;53.340;-6.260;2024-02-26T07:01:43;1.60;;;0.65;;
74753;SDS011;63271;53.340;-6.260;2024-02-26T07:04:11;0.40;;;0.25;;
74753;SDS011;63271;53.340;-6.260;2024-02-26T07:06:39;1.38;;;0.82;;
74753;SDS011;63271;53.340;-6.260;2024-02-26T07:09:05;2.00;;;0.60;;
74753;SDS011;63271;53.340;-6.260;2024-02-26T07:11:32;2.38;;;0.60;;
74753;SDS011;63271;53.340;-6.260;2024-02-26T07:13:58;2.10;;;0.80;;
74753;SDS011;63271;53.340;-6.260;2024-02-26T07:16:23;1.35;;;0.52;;
74753;SDS011;63271;53.340;-6.260;2024-02-26T07:18:49;4.05;;;0.60;;
74753;SDS011;63271;53.340;-6.260;2024-02-26T07:21:14;3.58;;;0.88;;
74753;SDS011;63271;53.340;-6.260;2024-02-26T07:23:40;2.03;;;0.70;;
74753;SDS011;63271;53.340;-6.260;2024-02-26T07:26:06;3.05;;;0.73;;
74753;SDS011;63271;53.340;-6.260;2024-02-26T07:28:33;3.55;;;1.23;;
74753;SDS011;63271;53.340;-6.260;2024-02-26T07:30:59;1.60;;;0.85;;
74753;SDS011;63271;53.340;-6.260;2024-02-26T07:33:24;3.95;;;1.00;;
74753;SDS011;63271;53.340;-6.260;2024-02-26T07:35:49;1.73;;;0.60;;
74753;SDS011;63271;53.340;-6.260;2024-02-26T07:38:18;1.55;;;0.82;;
74753;SDS011;63271;53.340;-6.260;2024-02-26T07:40:44;1.33;;;0.70;;
74753;SDS011;63271;53.340;-6.260;2024-02-26T07:43:10;0.75;;;0.65;;
74753;SDS011;63271;53.340;-6.260;2024-02-26T07:45:35;2.65;;;0.77;;
74753;SDS011;63271;53.340;-6.260;2024-02-26T07:48:01;1.48;;;0.80;;
74753;SDS011;63271;53.340;-6.260;2024-02-26T07:50:27;3.05;;;0.80;;
74753;SDS011;63271;53.340;-6.260;2024-02-26T07:52:53;2.10;;;0.82;;
74753;SDS011;63271;53.340;-6.260;2024-02-26T07:55:18;4.18;;;0.90;;
74753;SDS011;63271;53.340;-6.260;2024-02-26T07:57:47;1.88;;;0.63;;
74753;SDS011;63271;53.340;-6.260;2024-02-26T08:00:12;2.35;;;0.98;;
74753;SDS011;63271;53.340;-6.260;2024-02-26T08:02:41;0.77;;;0.60;;
74753;SDS011;63271;53.340;-6.260;2024-02-26T08:05:08;1.15;;;0.70;;
74753;SDS011;63271;53.340;-6.260;2024-02-26T08:07:34;2.40;;;0.75;;
74753;SDS011;63271;53.340;-6.260;2024-02-26T08:09:59;1.52;;;0.45;;
74753;SDS011;63271;53.340;-6.260;2024-02-26T08:12:25;1.17;;;0.70;;
74753;SDS011;63271;53.340;-6.260;2024-02-26T08:14:50;4.93;;;0.80;;
74753;SDS011;63271;53.340;-6.260;2024-02-26T08:17:16;2.50;;;0.70;;
74753;SDS011;63271;53.340;-6.260;2024-02-26T08:19:41;3.13;;;0.80;;
74753;SDS011;63271;53.340;-6.260;2024-02-26T08:22:07;2.65;;;0.88;;
74753;SDS011;63271;53.340;-6.260;2024-02-26T08:24:35;2.05;;;0.85;;
74753;SDS011;63271;53.340;-6.260;2024-02-26T08:27:00;2.45;;;0.80;;
74753;SDS011;63271;53.340;-6.260;2024-02-26T08:29:26;5.57;;;0.90;;
74753;SDS011;63271;53.340;-6.260;2024-02-26T08:31:52;3.90;;;0.93;;
74753;SDS011;63271;53.340;-6.260;2024-02-26T08:34:17;2.25;;;0.80;;
74753;SDS011;63271;53.340;-6.260;2024-02-26T08:36:42;3.20;;;0.70;;
74753;SDS011;63271;53.340;-6.260;2024-02-26T08:39:09;1.80;;;0.70;;
74753;SDS011;63271;53.340;-6.260;2024-02-26T08:41:34;2.92;;;0.95;;
74753;SDS011;63271;53.340;-6.260;2024-02-26T08:44:01;0.88;;;0.60;;
74753;SDS011;63271;53.340;-6.260;2024-02-26T08:46:26;1.42;;;0.52;;
74753;SDS011;63271;53.340;-6.260;2024-02-26T08:48:54;2.78;;;0.77;;
74753;SDS011;63271;53.340;-6.260;2024-02-26T08:51:19;1.83;;;0.65;;
74753;SDS011;63271;53.340;-6.260;2024-02-26T08:53:47;1.05;;;0.73;;
74753;SDS011;63271;53.340;-6.260;2024-02-26T08:58:44;4.53;;;0.75;;
74753;SDS011;63271;53.340;-6.260;2024-02-26T09:01:11;3.78;;;0.60;;
74753;SDS011;63271;53.340;-6.260;2024-02-26T09:03:36;1.45;;;0.60;;
74753;SDS011;63271;53.340;-6.260;2024-02-26T09:06:02;2.13;;;0.80;;
74753;SDS011;63271;53.340;-6.260;2024-02-26T09:08:29;2.40;;;0.60;;
74753;SDS011;63271;53.340;-6.260;2024-02-26T09:10:54;3.55;;;0.90;;
74753;SDS011;63271;53.340;-6.260;2024-02-26T09:13:21;4.03;;;0.88;;
74753;SDS011;63271;53.340;-6.260;2024-02-26T09:15:47;2.08;;;0.80;;
74753;SDS011;63271;53.340;-6.260;2024-02-26T09:18:12;1.85;;;0.73;;
74753;SDS011;63271;53.340;-6.260;2024-02-26T09:20:38;6.45;;;0.77;;
74753;SDS011;63271;53.340;-6.260;2024-02-26T09:23:04;2.67;;;0.75;;
74753;SDS011;63271;53.340;-6.260;2024-02-26T09:25:29;2.70;;;1.00;;
74753;SDS011;63271;53.340;-6.260;2024-02-26T09:27:55;1.73;;;0.70;;
74753;SDS011;63271;53.340;-6.260;2024-02-26T09:30:20;3.22;;;1.00;;
74753;SDS011;63271;53.340;-6.260;2024-02-26T09:32:46;4.15;;;1.00;;
74753;SDS011;63271;53.340;-6.260;2024-02-26T09:35:13;5.53;;;0.70;;
74753;SDS011;63271;53.340;-6.260;2024-02-26T09:37:38;1.73;;;0.60;;
74753;SDS011;63271;53.340;-6.260;2024-02-26T09:40:04;5.22;;;0.80;;
74753;SDS011;63271;53.340;-6.260;2024-02-26T09:42:31;2.30;;;0.60;;
74753;SDS011;63271;53.340;-6.260;2024-02-26T09:45:00;2.13;;;0.50;;
74753;SDS011;63271;53.340;-6.260;2024-02-26T09:47:31;2.70;;;0.70;;
74753;SDS011;63271;53.340;-6.260;2024-02-26T09:49:57;1.88;;;0.80;;
74753;SDS011;63271;53.340;-6.260;2024-02-26T09:52:24;2.72;;;0.60;;
74753;SDS011;63271;53.340;-6.260;2024-02-26T09:54:51;1.80;;;0.73;;
74753;SDS011;63271;53.340;-6.260;2024-02-26T09:57:16;3.53;;;0.88;;
74753;SDS011;63271;53.340;-6.260;2024-02-26T09:59:43;4.63;;;0.90;;
74753;SDS011;63271;53.340;-6.260;2024-02-26T10:02:12;6.28;;;1.00;;
74753;SDS011;63271;53.340;-6.260;2024-02-26T10:04:39;1.27;;;0.60;;
74753;SDS011;63271;53.340;-6.260;2024-02-26T10:07:07;4.65;;;1.20;;
74753;SDS011;63271;53.340;-6.260;2024-02-26T10:09:35;4.90;;;0.90;;
74753;SDS011;63271;53.340;-6.260;2024-02-26T10:12:01;4.47;;;0.80;;
74753;SDS011;63271;53.340;-6.260;2024-02-26T10:14:27;5.20;;;0.75;;
74753;SDS011;63271;53.340;-6.260;2024-02-26T10:16:53;3.67;;;1.00;;
74753;SDS011;63271;53.340;-6.260;2024-02-26T10:19:25;4.00;;;1.05;;
74753;SDS011;63271;53.340;-6.260;2024-02-26T10:21:59;6.18;;;0.75;;
74753;SDS011;63271;53.340;-6.260;2024-02-26T10:24:28;5.38;;;1.00;;
74753;SDS011;63271;53.340;-6.260;2024-02-26T10:27:01;2.10;;;0.70;;
74753;SDS011;63271;53.340;-6.260;2024-02-26T10:29:31;1.48;;;0.43;;
74753;SDS011;63271;53.340;-6.260;2024-02-26T10:31:56;2.72;;;0.70;;
74753;SDS011;63271;53.340;-6.260;2024-02-26T10:34:25;2.35;;;0.73;;
74753;SDS011;63271;53.340;-6.260;2024-02-26T10:36:51;3.72;;;0.73;;
74753;SDS011;63271;53.340;-6.260;2024-02-26T10:39:17;2.55;;;0.90;;
74753;SDS011;63271;53.340;-6.260;2024-02-26T10:41:43;3.85;;;1.13;;
74753;SDS011;63271;53.340;-6.260;2024-02-26T10:44:10;5.72;;;0.93;;
74753;SDS011;63271;53.340;-6.260;2024-02-26T10:46:37;6.85;;;1.10;;
74753;SDS011;63271;53.340;-6.260;2024-02-26T10:49:03;3.90;;;0.80;;
74753;SDS011;63271;53.340;-6.260;2024-02-26T10:51:32;2.05;;;0.47;;
74753;SDS011;63271;53.340;-6.260;2024-02-26T10:54:15;1.48;;;0.70;;
74753;SDS011;63271;53.340;-6.260;2024-02-26T10:56:42;1.80;;;0.57;;
74753;SDS011;63271;53.340;-6.260;2024-02-26T10:59:11;3.95;;;0.85;;
74753;SDS011;63271;53.340;-6.260;2024-02-26T11:01:38;3.00;;;0.85;;
74753;SDS011;63271;53.340;-6.260;2024-02-26T11:04:08;2.53;;;0.93;;
74753;SDS011;63271;53.340;-6.260;2024-02-26T11:06:34;3.25;;;1.10;;
74753;SDS011;63271;53.340;-6.260;2024-02-26T11:09:03;3.63;;;0.90;;
74753;SDS011;63271;53.340;-6.260;2024-02-26T11:11:32;11.35;;;1.60;;
74753;SDS011;63271;53.340;-6.260;2024-02-26T11:14:00;5.35;;;0.93;;
74753;SDS011;63271;53.340;-6.260;2024-02-26T11:16:32;7.28;;;1.40;;
74753;SDS011;63271;53.340;-6.260;2024-02-26T11:19:03;6.32;;;1.27;;
74753;SDS011;63271;53.340;-6.260;2024-02-26T11:21:28;5.30;;;1.40;;
74753;SDS011;63271;53.340;-6.260;2024-02-26T11:24:15;6.00;;;1.25;;
74753;SDS011;63271;53.340;-6.260;2024-02-26T11:26:44;4.47;;;0.98;;
74753;SDS011;63271;53.340;-6.260;2024-02-26T11:29:23;2.63;;;1.13;;
74753;SDS011;63271;53.340;-6.260;2024-02-26T11:31:52;9.38;;;1.65;;
74753;SDS011;63271;53.340;-6.260;2024-02-26T11:34:18;10.50;;;1.73;;
74753;SDS011;63271;53.340;-6.260;2024-02-26T11:36:46;9.20;;;1.30;;
74753;SDS011;63271;53.340;-6.260;2024-02-26T11:39:25;7.45;;;1.40;;
74753;SDS011;63271;53.340;-6.260;2024-02-26T11:41:54;5.00;;;1.52;;
74753;SDS011;63271;53.340;-6.260;2024-02-26T11:44:53;7.55;;;1.50;;
74753;SDS011;63271;53.340;-6.260;2024-02-26T11:47:19;10.25;;;1.42;;
74753;SDS011;63271;53.340;-6.260;2024-02-26T11:49:46;9.90;;;1.30;;
74753;SDS011;63271;53.340;-6.260;2024-02-26T11:52:13;8.00;;;1.63;;
74753;SDS011;63271;53.340;-6.260;2024-02-26T11:54:40;6.57;;;1.50;;
74753;SDS011;63271;53.340;-6.260;2024-02-26T12:00:11;8.82;;;1.40;;
74753;SDS011;63271;53.340;-6.260;2024-02-26T12:05:27;8.35;;;1.58;;
74753;SDS011;63271;53.340;-6.260;2024-02-26T12:08:06;5.68;;;1.45;;
74753;SDS011;63271;53.340;-6.260;2024-02-26T12:10:35;2.92;;;1.30;;
74753;SDS011;63271;53.340;-6.260;2024-02-26T12:13:07;7.82;;;1.27;;
74753;SDS011;63271;53.340;-6.260;2024-02-26T12:18:10;7.65;;;1.30;;
74753;SDS011;63271;53.340;-6.260;2024-02-26T12:20:45;11.57;;;1.83;;
74753;SDS011;63271;53.340;-6.260;2024-02-26T12:23:15;5.82;;;1.33;;
74753;SDS011;63271;53.340;-6.260;2024-02-26T12:25:43;8.90;;;1.35;;
74753;SDS011;63271;53.340;-6.260;2024-02-26T12:28:09;6.55;;;1.30;;
74753;SDS011;63271;53.340;-6.260;2024-02-26T12:30:38;8.43;;;1.42;;
74753;SDS011;63271;53.340;-6.260;2024-02-26T12:33:03;4.28;;;1.27;;
74753;SDS011;63271;53.340;-6.260;2024-02-26T12:35:31;13.57;;;1.83;;
74753;SDS011;63271;53.340;-6.260;2024-02-26T12:37:57;5.10;;;1.00;;
74753;SDS011;63271;53.340;-6.260;2024-02-26T12:40:24;10.05;;;1.23;;
74753;SDS011;63271;53.340;-6.260;2024-02-26T12:42:56;20.15;;;1.70;;
74753;SDS011;63271;53.340;-6.260;2024-02-26T12:45:22;5.75;;;1.60;;
74753;SDS011;63271;53.340;-6.260;2024-02-26T12:51:12;6.25;;;1.65;;
74753;SDS011;63271;53.340;-6.260;2024-02-26T12:53:40;4.45;;;1.40;;
74753;SDS011;63271;53.340;-6.260;2024-02-26T12:56:08;2.30;;;1.27;;
74753;SDS011;63271;53.340;-6.260;2024-02-26T12:58:41;4.45;;;1.33;;
74753;SDS011;63271;53.340;-6.260;2024-02-26T13:01:08;6.22;;;1.80;;
74753;SDS011;63271;53.340;-6.260;2024-02-26T13:03:42;6.85;;;1.50;;
74753;SDS011;63271;53.340;-6.260;2024-02-26T13:06:08;5.38;;;1.10;;
74753;SDS011;63271;53.340;-6.260;2024-02-26T13:08:38;6.45;;;1.23;;
74753;SDS011;63271;53.340;-6.260;2024-02-26T13:11:14;2.65;;;0.93;;
74753;SDS011;63271;53.340;-6.260;2024-02-26T13:13:39;4.63;;;1.10;;
74753;SDS011;63271;53.340;-6.260;2024-02-26T13:16:06;6.32;;;1.40;;
74753;SDS011;63271;53.340;-6.260;2024-02-26T13:18:33;1.75;;;1.00;;
74753;SDS011;63271;53.340;-6.260;2024-02-26T13:21:07;4.30;;;1.40;;
74753;SDS011;63271;53.340;-6.260;2024-02-26T13:23:35;3.35;;;0.90;;
74753;SDS011;63271;53.340;-6.260;2024-02-26T13:26:01;2.88;;;0.95;;
74753;SDS011;63271;53.340;-6.260;2024-02-26T13:28:32;3.35;;;1.10;;
74753;SDS011;63271;53.340;-6.260;2024-02-26T13:31:00;5.80;;;1.10;;
74753;SDS011;63271;53.340;-6.260;2024-02-26T13:33:35;3.10;;;1.00;;
74753;SDS011;63271;53.340;-6.260;2024-02-26T13:36:03;5.00;;;1.23;;
74753;SDS011;63271;53.340;-6.260;2024-02-26T13:38:29;3.95;;;1.15;;
74753;SDS011;63271;53.340;-6.260;2024-02-26T13:40:55;4.63;;;1.13;;
74753;SDS011;63271;53.340;-6.260;2024-02-26T13:43:21;3.72;;;1.27;;
74753;SDS011;63271;53.340;-6.260;2024-02-26T13:45:47;5.75;;;1.40;;
74753;SDS011;63271;53.340;-6.260;2024-02-26T13:48:13;1.60;;;0.75;;
74753;SDS011;63271;53.340;-6.260;2024-02-26T13:50:39;6.32;;;1.05;;
74753;SDS011;63271;53.340;-6.260;2024-02-26T13:53:05;4.63;;;1.30;;
74753;SDS011;63271;53.340;-6.260;2024-02-26T13:55:31;1.58;;;0.90;;
74753;SDS011;63271;53.340;-6.260;2024-02-26T13:57:58;1.85;;;1.10;;
74753;SDS011;63271;53.340;-6.260;2024-02-26T14:00:26;1.60;;;1.05;;
74753;SDS011;63271;53.340;-6.260;2024-02-26T14:02:52;4.57;;;0.90;;
74753;SDS011;63271;53.340;-6.260;2024-02-26T14:05:18;1.35;;;1.05;;
74753;SDS011;63271;53.340;-6.260;2024-02-26T14:07:43;3.20;;;1.10;;
74753;SDS011;63271;53.340;-6.260;2024-02-26T14:10:11;3.38;;;1.08;;
74753;SDS011;63271;53.340;-6.260;2024-02-26T14:12:37;3.13;;;1.02;;
74753;SDS011;63271;53.340;-6.260;2024-02-26T14:15:04;4.07;;;1.02;;
74753;SDS011;63271;53.340;-6.260;2024-02-26T14:17:32;2.22;;;1.00;;
74753;SDS011;63271;53.340;-6.260;2024-02-26T14:19:58;2.92;;;0.98;;
74753;SDS011;63271;53.340;-6.260;2024-02-26T14:22:24;5.45;;;1.00;;
74753;SDS011;63271;53.340;-6.260;2024-02-26T14:24:52;6.78;;;0.90;;
74753;SDS011;63271;53.340;-6.260;2024-02-26T14:27:18;6.47;;;1.20;;
74753;SDS011;63271;53.340;-6.260;2024-02-26T14:29:45;1.92;;;0.95;;
74753;SDS011;63271;53.340;-6.260;2024-02-26T14:32:11;2.70;;;1.00;;
74753;SDS011;63271;53.340;-6.260;2024-02-26T14:34:37;4.97;;;1.08;;
74753;SDS011;63271;53.340;-6.260;2024-02-26T14:37:04;4.35;;;0.88;;
74753;SDS011;63271;53.340;-6.260;2024-02-26T14:39:33;3.60;;;1.08;;
74753;SDS011;63271;53.340;-6.260;2024-02-26T14:41:59;5.85;;;1.10;;
74753;SDS011;63271;53.340;-6.260;2024-02-26T14:44:25;4.05;;;1.30;;
74753;SDS011;63271;53.340;-6.260;2024-02-26T14:46:52;1.90;;;0.95;;
74753;SDS011;63271;53.340;-6.260;2024-02-26T14:49:18;1.95;;;0.88;;
74753;SDS011;63271;53.340;-6.260;2024-02-26T14:51:43;2.85;;;1.10;;
74753;SDS011;63271;53.340;-6.260;2024-02-26T14:54:13;4.50;;;1.98;;
74753;SDS011;63271;53.340;-6.260;2024-02-26T14:56:38;3.00;;;0.88;;
74753;SDS011;63271;53.340;-6.260;2024-02-26T14:59:04;3.15;;;1.05;;
74753;SDS011;63271;53.340;-6.260;2024-02-26T15:01:31;5.07;;;0.82;;
74753;SDS011;63271;53.340;-6.260;2024-02-26T15:03:57;2.40;;;0.90;;
74753;SDS011;63271;53.340;-6.260;2024-02-26T15:06:24;4.03;;;1.25;;
74753;SDS011;63271;53.340;-6.260;2024-02-26T15:08:49;7.45;;;1.00;;
74753;SDS011;63271;53.340;-6.260;2024-02-26T15:11:15;6.78;;;0.98;;
74753;SDS011;63271;53.340;-6.260;2024-02-26T15:13:41;6.65;;;1.20;;
74753;SDS011;63271;53.340;-6.260;2024-02-26T15:16:16;7.95;;;1.05;;
74753;SDS011;63271;53.340;-6.260;2024-02-26T15:18:44;5.28;;;0.75;;
74753;SDS011;63271;53.340;-6.260;2024-02-26T15:21:09;5.72;;;1.35;;
74753;SDS011;63271;53.340;-6.260;2024-02-26T15:23:37;11.10;;;1.02;;
74753;SDS011;63271;53.340;-6.260;2024-02-26T15:26:03;5.93;;;1.20;;
74753;SDS011;63271;53.340;-6.260;2024-02-26T15:28:28;3.53;;;0.70;;
74753;SDS011;63271;53.340;-6.260;2024-02-26T15:30:54;4.68;;;1.00;;
74753;SDS011;63271;53.340;-6.260;2024-02-26T15:33:25;4.65;;;0.90;;
74753;SDS011;63271;53.340;-6.260;2024-02-26T15:35:50;8.20;;;1.42;;
74753;SDS011;63271;53.340;-6.260;2024-02-26T15:38:16;5.18;;;1.05;;
74753;SDS011;63271;53.340;-6.260;2024-02-26T15:40:41;5.10;;;0.80;;
74753;SDS011;63271;53.340;-6.260;2024-02-26T15:43:07;6.78;;;1.48;;
74753;SDS011;63271;53.340;-6.260;2024-02-26T15:45:32;6.07;;;1.05;;
74753;SDS011;63271;53.340;-6.260;2024-02-26T15:47:59;2.75;;;1.13;;
74753;SDS011;63271;53.340;-6.260;2024-02-26T15:50:25;3.40;;;0.70;;
74753;SDS011;63271;53.340;-6.260;2024-02-26T15:52:50;2.08;;;0.77;;
74753;SDS011;63271;53.340;-6.260;2024-02-26T15:55:17;5.03;;;1.02;;
74753;SDS011;63271;53.340;-6.260;2024-02-26T15:57:43;1.23;;;0.60;;
74753;SDS011;63271;53.340;-6.260;2024-02-26T16:00:10;5.90;;;0.93;;
74753;SDS011;63271;53.340;-6.260;2024-02-26T16:02:36;4.47;;;0.82;;
74753;SDS011;63271;53.340;-6.260;2024-02-26T16:05:03;3.35;;;1.02;;
74753;SDS011;63271;53.340;-6.260;2024-02-26T16:07:33;3.95;;;0.90;;
74753;SDS011;63271;53.340;-6.260;2024-02-26T16:10:02;8.50;;;1.10;;
74753;SDS011;63271;53.340;-6.260;2024-02-26T16:12:34;2.95;;;0.95;;
74753;SDS011;63271;53.340;-6.260;2024-02-26T16:15:02;7.05;;;1.40;;
74753;SDS011;63271;53.340;-6.260;2024-02-26T16:17:30;3.38;;;0.70;;
74753;SDS011;63271;53.340;-6.260;2024-02-26T16:19:59;5.45;;;0.90;;
74753;SDS011;63271;53.340;-6.260;2024-02-26T16:22:25;5.45;;;0.80;;
74753;SDS011;63271;53.340;-6.260;2024-02-26T16:24:56;2.83;;;0.90;;
74753;SDS011;63271;53.340;-6.260;2024-02-26T16:27:22;1.60;;;1.00;;
74753;SDS011;63271;53.340;-6.260;2024-02-26T16:29:48;2.13;;;0.80;;
74753;SDS011;63271;53.340;-6.260;2024-02-26T16:32:13;4.90;;;1.55;;
74753;SDS011;63271;53.340;-6.260;2024-02-26T16:34:39;3.60;;;0.88;;
74753;SDS011;63271;53.340;-6.260;2024-02-26T16:37:08;2.83;;;0.77;;
74753;SDS011;63271;53.340;-6.260;2024-02-26T16:39:36;4.35;;;0.70;;
74753;SDS011;63271;53.340;-6.260;2024-02-26T16:42:05;1.90;;;0.95;;
74753;SDS011;63271;53.340;-6.260;2024-02-26T16:44:34;2.17;;;0.77;;
74753;SDS011;63271;53.340;-6.260;2024-02-26T16:47:04;2.10;;;0.90;;
74753;SDS011;63271;53.340;-6.260;2024-02-26T16:49:33;2.03;;;0.82;;
74753;SDS011;63271;53.340;-6.260;2024-02-26T16:51:59;1.95;;;0.80;;
74753;SDS011;63271;53.340;-6.260;2024-02-26T16:54:25;2.60;;;0.60;;
74753;SDS011;63271;53.340;-6.260;2024-02-26T16:56:50;2.85;;;0.95;;
74753;SDS011;63271;53.340;-6.260;2024-02-26T16:59:16;1.40;;;0.70;;
74753;SDS011;63271;53.340;-6.260;2024-02-26T17:01:48;6.70;;;1.30;;
74753;SDS011;63271;53.340;-6.260;2024-02-26T17:04:14;3.70;;;1.20;;
74753;SDS011;63271;53.340;-6.260;2024-02-26T17:06:40;4.32;;;1.25;;
74753;SDS011;63271;53.340;-6.260;2024-02-26T17:09:06;2.58;;;1.00;;
74753;SDS011;63271;53.340;-6.260;2024-02-26T17:11:33;3.22;;;1.10;;
74753;SDS011;63271;53.340;-6.260;2024-02-26T17:14:03;6.15;;;1.60;;
74753;SDS011;63271;53.340;-6.260;2024-02-26T17:16:29;6.75;;;1.27;;
74753;SDS011;63271;53.340;-6.260;2024-02-26T17:18:54;4.47;;;1.38;;
74753;SDS011;63271;53.340;-6.260;2024-02-26T17:21:20;3.35;;;1.50;;
74753;SDS011;63271;53.340;-6.260;2024-02-26T17:23:45;6.18;;;1.08;;
74753;SDS011;63271;53.340;-6.260;2024-02-26T17:26:17;3.05;;;1.00;;
74753;SDS011;63271;53.340;-6.260;2024-02-26T17:28:43;4.95;;;1.30;;
74753;SDS011;63271;53.340;-6.260;2024-02-26T17:31:09;5.30;;;1.52;;
74753;SDS011;63271;53.340;-6.260;2024-02-26T17:33:36;2.70;;;1.27;;
74753;SDS011;63271;53.340;-6.260;2024-02-26T17:36:01;2.17;;;1.02;;
74753;SDS011;63271;53.340;-6.260;2024-02-26T17:38:27;4.65;;;1.27;;
74753;SDS011;63271;53.340;-6.260;2024-02-26T17:40:52;3.47;;;1.08;;
74753;SDS011;63271;53.340;-6.260;2024-02-26T17:43:20;2.85;;;1.20;;
74753;SDS011;63271;53.340;-6.260;2024-02-26T17:45:49;5.63;;;1.25;;
74753;SDS011;63271;53.340;-6.260;2024-02-26T17:48:15;3.60;;;1.20;;
74753;SDS011;63271;53.340;-6.260;2024-02-26T17:50:43;1.98;;;1.02;;
74753;SDS011;63271;53.340;-6.260;2024-02-26T17:53:10;3.85;;;1.52;;
74753;SDS011;63271;53.340;-6.260;2024-02-26T17:55:39;6.18;;;1.23;;
74753;SDS011;63271;53.340;-6.260;2024-02-26T17:58:05;4.13;;;1.42;;
74753;SDS011;63271;53.340;-6.260;2024-02-26T18:00:33;4.72;;;1.48;;
74753;SDS011;63271;53.340;-6.260;2024-02-26T18:02:59;2.95;;;1.38;;
74753;SDS011;63271;53.340;-6.260;2024-02-26T18:05:25;4.63;;;1.48;;
74753;SDS011;63271;53.340;-6.260;2024-02-26T18:07:54;4.68;;;1.58;;
74753;SDS011;63271;53.340;-6.260;2024-02-26T18:10:22;6.80;;;2.42;;
74753;SDS011;63271;53.340;-6.260;2024-02-26T18:12:49;3.92;;;1.38;;
74753;SDS011;63271;53.340;-6.260;2024-02-26T18:15:15;2.88;;;0.90;;
74753;SDS011;63271;53.340;-6.260;2024-02-26T18:17:40;6.00;;;1.48;;
74753;SDS011;63271;53.340;-6.260;2024-02-26T18:20:10;5.10;;;1.30;;
74753;SDS011;63271;53.340;-6.260;2024-02-26T18:22:42;3.15;;;1.40;;
74753;SDS011;63271;53.340;-6.260;2024-02-26T18:25:08;4.82;;;1.40;;
74753;SDS011;63271;53.340;-6.260;2024-02-26T18:27:33;7.80;;;1.85;;
74753;SDS011;63271;53.340;-6.260;2024-02-26T18:30:01;11.18;;;2.53;;
74753;SDS011;63271;53.340;-6.260;2024-02-26T18:32:30;3.75;;;1.60;;
74753;SDS011;63271;53.340;-6.260;2024-02-26T18:34:55;3.20;;;1.40;;
74753;SDS011;63271;53.340;-6.260;2024-02-26T18:37:23;5.65;;;1.52;;
74753;SDS011;63271;53.340;-6.260;2024-02-26T18:39:50;5.85;;;1.75;;
74753;SDS011;63271;53.340;-6.260;2024-02-26T18:42:16;3.90;;;1.48;;
74753;SDS011;63271;53.340;-6.260;2024-02-26T18:44:44;5.18;;;1.63;;
74753;SDS011;63271;53.340;-6.260;2024-02-26T18:47:10;6.78;;;1.75;;
74753;SDS011;63271;53.340;-6.260;2024-02-26T18:49:38;3.83;;;1.42;;
74753;SDS011;63271;53.340;-6.260;2024-02-26T18:52:04;6.47;;;2.00;;
74753;SDS011;63271;53.340;-6.260;2024-02-26T18:54:30;4.22;;;1.75;;
74753;SDS011;63271;53.340;-6.260;2024-02-26T18:56:59;5.70;;;1.70;;
74753;SDS011;63271;53.340;-6.260;2024-02-26T18:59:25;5.07;;;1.70;;
74753;SDS011;63271;53.340;-6.260;2024-02-26T19:01:50;7.70;;;2.10;;
74753;SDS011;63271;53.340;-6.260;2024-02-26T19:04:19;4.65;;;2.00;;
74753;SDS011;63271;53.340;-6.260;2024-02-26T19:06:45;8.13;;;2.20;;
74753;SDS011;63271;53.340;-6.260;2024-02-26T19:09:11;5.60;;;1.52;;
74753;SDS011;63271;53.340;-6.260;2024-02-26T19:11:37;3.90;;;1.95;;
74753;SDS011;63271;53.340;-6.260;2024-02-26T19:14:02;4.78;;;1.80;;
74753;SDS011;63271;53.340;-6.260;2024-02-26T19:16:28;6.32;;;2.20;;
74753;SDS011;63271;53.340;-6.260;2024-02-26T19:18:59;4.30;;;1.67;;
74753;SDS011;63271;53.340;-6.260;2024-02-26T19:21:25;5.78;;;1.90;;
74753;SDS011;63271;53.340;-6.260;2024-02-26T19:23:50;5.57;;;1.83;;
74753;SDS011;63271;53.340;-6.260;2024-02-26T19:26:19;5.18;;;1.90;;
74753;SDS011;63271;53.340;-6.260;2024-02-26T19:28:44;3.90;;;1.85;;
74753;SDS011;63271;53.340;-6.260;2024-02-26T19:31:13;3.72;;;1.77;;
74753;SDS011;63271;53.340;-6.260;2024-02-26T19:33:38;4.43;;;1.77;;
74753;SDS011;63271;53.340;-6.260;2024-02-26T19:36:04;4.85;;;1.92;;
74753;SDS011;63271;53.340;-6.260;2024-02-26T19:38:30;4.57;;;1.63;;
74753;SDS011;63271;53.340;-6.260;2024-02-26T19:40:55;3.75;;;1.73;;
74753;SDS011;63271;53.340;-6.260;2024-02-26T19:43:24;4.38;;;1.88;;
74753;SDS011;63271;53.340;-6.260;2024-02-26T19:45:49;5.45;;;1.95;;
74753;SDS011;63271;53.340;-6.260;2024-02-26T19:48:15;8.88;;;2.30;;
74753;SDS011;63271;53.340;-6.260;2024-02-26T19:50:41;4.50;;;1.77;;
74753;SDS011;63271;53.340;-6.260;2024-02-26T19:53:09;4.63;;;2.20;;
74753;SDS011;63271;53.340;-6.260;2024-02-26T19:55:35;6.15;;;2.25;;
74753;SDS011;63271;53.340;-6.260;2024-02-26T19:58:00;9.02;;;2.40;;
74753;SDS011;63271;53.340;-6.260;2024-02-26T20:00:28;8.38;;;2.58;;
